createdAt,value
2023-04-07T00:00:58.653Z,99220.25
2023-04-07T00:03:28.456Z,99218.73
2023-04-07T00:05:57.046Z,99221.23
2023-04-07T00:08:25.939Z,99220.84
2023-04-07T00:10:54.614Z,99222.55
2023-04-07T00:13:23.333Z,99223.70
2023-04-07T00:15:51.847Z,99222.66
2023-04-07T00:18:27.583Z,99229.71
2023-04-07T00:20:55.833Z,99232.92
2023-04-07T00:23:24.326Z,99236.88
2023-04-07T00:25:52.556Z,99235.13
2023-04-07T00:28:20.887Z,99239.10
2023-04-07T00:30:53.566Z,99240.27
2023-04-07T00:33:24.136Z,99243.50
2023-04-07T00:35:52.450Z,99244.38
2023-04-07T00:38:21.048Z,99243.16
2023-04-07T00:40:49.232Z,99242.48
2023-04-07T00:43:19.826Z,99243.86
2023-04-07T00:45:48.127Z,99246.02
2023-04-07T00:48:16.417Z,99244.82
2023-04-07T00:50:46.067Z,99242.23
2023-04-07T00:53:14.597Z,99247.70
2023-04-07T00:55:44.050Z,99246.52
2023-04-07T00:58:13.720Z,99249.70
2023-04-07T01:01:12.273Z,99251.38
2023-04-07T01:03:49.782Z,99250.40
2023-04-07T01:06:24.653Z,99253.98
2023-04-07T01:09:02.111Z,99257.51
2023-04-07T01:11:35.688Z,99258.92
2023-04-07T01:14:06.386Z,99261.05
2023-04-07T01:17:02.048Z,99262.72
2023-04-07T01:19:56.527Z,99267.13
2023-04-07T01:22:35.492Z,99272.71
2023-04-07T01:25:25.955Z,99275.27
2023-04-07T01:28:26.486Z,99282.00
2023-04-07T01:30:58.549Z,99284.26
2023-04-07T01:33:32.467Z,99282.88
2023-04-07T01:36:02.479Z,99289.98
2023-04-07T01:38:32.083Z,99286.58
2023-04-07T01:41:02.074Z,99282.49
2023-04-07T01:43:32.735Z,99289.12
2023-04-07T01:46:05.632Z,99295.69
2023-04-07T01:48:36.865Z,99294.42
2023-04-07T01:51:06.678Z,99293.38
2023-04-07T01:53:38.088Z,99297.23
2023-04-07T01:56:07.119Z,99300.85
2023-04-07T01:58:37.740Z,99299.13
2023-04-07T02:01:09.011Z,99297.69
2023-04-07T02:04:25.994Z,99301.80
2023-04-07T02:07:04.402Z,99306.79
2023-04-07T02:09:41.031Z,99304.59
2023-04-07T02:12:14.706Z,99305.34
2023-04-07T02:14:48.022Z,99308.64
2023-04-07T02:17:28.435Z,99309.20
2023-04-07T02:19:59.491Z,99310.42
2023-04-07T02:22:29.126Z,99314.01
2023-04-07T02:24:57.721Z,99314.84
2023-04-07T02:27:27.982Z,99316.65
2023-04-07T02:29:56.685Z,99319.65
2023-04-07T02:32:25.824Z,99318.84
2023-04-07T02:34:54.385Z,99319.13
2023-04-07T02:37:22.876Z,99320.46
2023-04-07T02:39:51.785Z,99322.50
2023-04-07T02:42:22.033Z,99326.97
2023-04-07T02:44:50.941Z,99328.66
2023-04-07T02:47:19.207Z,99328.60
2023-04-07T02:49:47.520Z,99330.09
2023-04-07T02:52:15.907Z,99338.73
2023-04-07T02:54:47.518Z,99336.12
2023-04-07T02:57:16.539Z,99335.90
2023-04-07T02:59:46.461Z,99335.96
2023-04-07T03:02:15.720Z,99335.10
2023-04-07T03:04:44.876Z,99338.05
2023-04-07T03:07:14.463Z,99337.50
2023-04-07T03:09:45.300Z,99343.63
2023-04-07T03:12:16.441Z,99345.02
2023-04-07T03:14:45.630Z,99348.72
2023-04-07T03:17:18.841Z,99353.34
2023-04-07T03:19:52.017Z,99352.77
2023-04-07T03:22:20.711Z,99358.60
2023-04-07T03:24:51.661Z,99361.51
2023-04-07T03:27:21.268Z,99359.88
2023-04-07T03:29:53.394Z,99364.45
2023-04-07T03:32:24.257Z,99369.49
2023-04-07T03:34:52.585Z,99374.40
2023-04-07T03:37:21.110Z,99375.48
2023-04-07T03:39:52.087Z,99379.70
2023-04-07T03:42:28.601Z,99380.63
2023-04-07T03:45:01.808Z,99378.52
2023-04-07T03:47:31.135Z,99381.14
2023-04-07T03:50:02.811Z,99383.13
2023-04-07T03:52:32.985Z,99384.64
2023-04-07T03:55:08.346Z,99388.33
2023-04-07T03:57:36.926Z,99389.92
2023-04-07T04:00:06.132Z,99391.24
2023-04-07T04:02:45.150Z,99397.70
2023-04-07T04:05:16.806Z,99398.73
2023-04-07T04:07:46.229Z,99401.33
2023-04-07T04:10:16.547Z,99404.92
2023-04-07T04:12:50.092Z,99408.91
2023-04-07T04:15:20.984Z,99415.50
2023-04-07T04:17:51.137Z,99421.71
2023-04-07T04:20:20.088Z,99424.64
2023-04-07T04:22:51.474Z,99420.00
2023-04-07T04:25:20.162Z,99425.63
2023-04-07T04:27:51.199Z,99428.10
2023-04-07T04:30:22.826Z,99427.26
2023-04-07T04:32:54.866Z,99428.10
2023-04-07T04:35:34.493Z,99430.82
2023-04-07T04:38:11.820Z,99435.91
2023-04-07T04:40:48.398Z,99441.79
2023-04-07T04:43:18.516Z,99443.73
2023-04-07T04:45:47.880Z,99450.30
2023-04-07T04:48:17.580Z,99453.23
2023-04-07T04:50:46.424Z,99454.06
2023-04-07T04:53:21.438Z,99457.56
2023-04-07T04:56:02.224Z,99462.05
2023-04-07T04:58:51.040Z,99464.17
2023-04-07T05:01:32.814Z,99468.77
2023-04-07T05:04:14.063Z,99470.64
2023-04-07T05:06:46.755Z,99474.08
2023-04-07T05:09:17.649Z,99475.48
2023-04-07T05:11:48.184Z,99477.82
2023-04-07T05:14:16.566Z,99484.34
2023-04-07T05:16:49.443Z,99487.36
2023-04-07T05:19:22.359Z,99492.38
2023-04-07T05:21:51.556Z,99492.78
2023-04-07T05:24:21.404Z,99499.35
2023-04-07T05:26:54.656Z,99500.19
2023-04-07T05:29:23.538Z,99510.35
2023-04-07T05:31:52.653Z,99513.11
2023-04-07T05:34:21.519Z,99519.95
2023-04-07T05:36:53.087Z,99514.84
2023-04-07T05:39:22.412Z,99518.27
2023-04-07T05:41:52.780Z,99523.04
2023-04-07T05:44:23.061Z,99528.81
2023-04-07T05:46:52.073Z,99527.95
2023-04-07T05:49:21.718Z,99531.49
2023-04-07T05:51:54.566Z,99533.17
2023-04-07T05:54:22.917Z,99538.00
2023-04-07T05:56:52.210Z,99539.88
2023-04-07T05:59:21.898Z,99543.52
2023-04-07T06:01:58.080Z,99542.70
2023-04-07T06:04:27.641Z,99542.30
2023-04-07T06:06:56.153Z,99542.91
2023-04-07T06:09:26.820Z,99546.79
2023-04-07T06:11:56.972Z,99548.67
2023-04-07T06:14:25.970Z,99552.40
2023-04-07T06:16:56.565Z,99558.69
2023-04-07T06:19:27.922Z,99562.30
2023-04-07T06:21:56.131Z,99561.45
2023-04-07T06:24:25.424Z,99562.85
2023-04-07T06:26:54.971Z,99564.12
2023-04-07T06:29:23.286Z,99566.58
2023-04-07T06:31:52.890Z,99568.16
2023-04-07T06:34:21.611Z,99570.88
2023-04-07T06:36:50.514Z,99573.17
2023-04-07T06:39:20.185Z,99578.73
2023-04-07T06:41:48.483Z,99580.55
2023-04-07T06:44:16.877Z,99582.79
2023-04-07T06:46:47.590Z,99585.41
2023-04-07T06:49:19.675Z,99585.39
2023-04-07T06:51:48.185Z,99589.77
2023-04-07T06:54:16.741Z,99592.32
2023-04-07T06:56:45.240Z,99593.69
2023-04-07T06:59:13.747Z,99596.52
2023-04-07T07:01:42.488Z,99597.16
2023-04-07T07:04:11.282Z,99600.92
2023-04-07T07:06:40.139Z,99598.64
2023-04-07T07:09:09.248Z,99596.14
2023-04-07T07:11:44.993Z,99597.64
2023-04-07T07:14:13.856Z,99598.15
2023-04-07T07:16:42.339Z,99600.64
2023-04-07T07:19:17.551Z,99602.31
2023-04-07T07:21:46.985Z,99605.66
2023-04-07T07:24:15.610Z,99610.19
2023-04-07T07:26:46.114Z,99608.52
2023-04-07T07:29:14.332Z,99607.14
2023-04-07T07:31:43.676Z,99608.86
2023-04-07T07:34:12.131Z,99606.03
2023-04-07T07:36:40.787Z,99610.80
2023-04-07T07:39:09.504Z,99611.51
2023-04-07T07:41:38.007Z,99613.59
2023-04-07T07:44:08.206Z,99611.23
2023-04-07T07:46:36.646Z,99610.89
2023-04-07T07:49:06.520Z,99612.57
2023-04-07T07:51:35.254Z,99617.64
2023-04-07T07:54:03.612Z,99622.30
2023-04-07T07:56:32.401Z,99623.14
2023-04-07T07:59:01.003Z,99625.40
2023-04-07T08:01:29.700Z,99626.45
2023-04-07T08:03:59.042Z,99623.98
2023-04-07T08:06:29.416Z,99623.79
2023-04-07T08:08:59.024Z,99622.81
2023-04-07T08:11:28.326Z,99626.09
2023-04-07T08:13:56.806Z,99629.67
2023-04-07T08:16:27.150Z,99625.19
2023-04-07T08:18:55.541Z,99628.52
2023-04-07T08:21:23.820Z,99627.32
2023-04-07T08:23:54.010Z,99628.00
2023-04-07T08:26:22.555Z,99629.13
2023-04-07T08:28:53.964Z,99630.23
2023-04-07T08:31:22.549Z,99628.94
2023-04-07T08:33:54.488Z,99633.13
2023-04-07T08:36:26.619Z,99633.46
2023-04-07T08:38:55.093Z,99636.80
2023-04-07T08:41:41.096Z,99642.70
2023-04-07T08:44:10.773Z,99636.23
2023-04-07T08:46:40.601Z,99640.98
2023-04-07T08:49:11.420Z,99639.45
2023-04-07T08:51:47.740Z,99642.72
2023-04-07T08:54:22.719Z,99643.02
2023-04-07T08:56:53.797Z,99648.76
2023-04-07T08:59:26.959Z,99649.30
2023-04-07T09:01:56.666Z,99654.14
2023-04-07T09:04:25.696Z,99652.56
2023-04-07T09:06:54.272Z,99651.98
2023-04-07T09:09:22.773Z,99652.83
2023-04-07T09:11:53.762Z,99658.07
2023-04-07T09:14:22.259Z,99655.42
2023-04-07T09:16:50.939Z,99656.83
2023-04-07T09:19:24.924Z,99658.61
2023-04-07T09:21:53.901Z,99658.93
2023-04-07T09:24:24.462Z,99660.23
2023-04-07T09:27:18.021Z,99658.33
2023-04-07T09:29:49.823Z,99659.73
2023-04-07T09:32:41.675Z,99659.59
2023-04-07T09:35:10.673Z,99659.84
2023-04-07T09:37:39.872Z,99666.54
2023-04-07T09:40:09.305Z,99668.57
2023-04-07T09:42:46.493Z,99668.03
2023-04-07T09:45:34.112Z,99668.98
2023-04-07T09:48:24.997Z,99669.03
2023-04-07T09:51:05.832Z,99671.71
2023-04-07T09:53:49.207Z,99672.96
2023-04-07T09:56:22.597Z,99672.45
2023-04-07T09:58:54.115Z,99670.59
2023-04-07T10:01:23.002Z,99668.61
2023-04-07T10:03:53.087Z,99667.64
2023-04-07T10:06:22.053Z,99670.11
2023-04-07T10:08:52.649Z,99674.44
2023-04-07T10:11:21.401Z,99674.55
2023-04-07T10:13:49.959Z,99677.23
2023-04-07T10:16:22.832Z,99677.79
2023-04-07T10:18:53.270Z,99676.58
2023-04-07T10:21:22.947Z,99670.05
2023-04-07T10:24:05.033Z,99672.34
2023-04-07T10:26:35.806Z,99673.86
2023-04-07T10:29:08.649Z,99685.11
2023-04-07T10:31:39.449Z,99686.46
2023-04-07T10:34:13.290Z,99684.52
2023-04-07T10:37:13.864Z,99687.17
2023-04-07T10:39:42.380Z,99685.88
2023-04-07T10:42:39.034Z,99688.17
2023-04-07T10:45:11.234Z,99686.47
2023-04-07T10:47:58.568Z,99681.59
2023-04-07T10:50:28.657Z,99685.71
2023-04-07T10:53:14.149Z,99684.83
2023-04-07T10:55:46.850Z,99680.85
2023-04-07T10:58:31.958Z,99682.54
2023-04-07T11:01:00.848Z,99678.32
2023-04-07T11:03:35.002Z,99679.41
2023-04-07T11:06:08.545Z,99677.84
2023-04-07T11:08:49.640Z,99677.13
2023-04-07T11:11:38.988Z,99676.98
2023-04-07T11:14:07.620Z,99679.95
2023-04-07T11:16:41.958Z,99680.88
2023-04-07T11:19:13.156Z,99678.17
2023-04-07T11:21:41.875Z,99676.34
2023-04-07T11:24:10.273Z,99676.48
2023-04-07T11:26:40.945Z,99675.08
2023-04-07T11:29:09.430Z,99676.64
2023-04-07T11:31:38.765Z,99679.02
2023-04-07T11:34:07.838Z,99680.41
2023-04-07T11:36:40.160Z,99679.75
2023-04-07T11:39:22.095Z,99675.70
2023-04-07T11:41:51.238Z,99674.86
2023-04-07T11:44:20.255Z,99674.77
2023-04-07T11:46:56.643Z,99673.52
2023-04-07T11:49:28.741Z,99679.08
2023-04-07T11:52:07.008Z,99676.20
2023-04-07T11:54:53.235Z,99673.16
2023-04-07T11:57:30.144Z,99674.34
2023-04-07T12:00:09.621Z,99671.92
2023-04-07T12:02:38.634Z,99669.34
2023-04-07T12:05:07.571Z,99669.56
2023-04-07T12:07:38.656Z,99669.63
2023-04-07T12:10:25.836Z,99670.48
2023-04-07T12:12:56.905Z,99664.59
2023-04-07T12:15:26.683Z,99665.39
2023-04-07T12:17:55.782Z,99664.79
2023-04-07T12:20:27.875Z,99667.70
2023-04-07T12:23:00.145Z,99665.45
2023-04-07T12:25:28.367Z,99664.11
2023-04-07T12:28:02.353Z,99664.50
2023-04-07T12:30:31.050Z,99664.40
2023-04-07T12:32:59.806Z,99665.02
2023-04-07T12:35:28.908Z,99666.42
2023-04-07T12:37:57.213Z,99664.99
2023-04-07T12:40:27.615Z,99664.30
2023-04-07T12:42:58.378Z,99660.27
2023-04-07T12:45:26.678Z,99662.77
2023-04-07T12:47:55.978Z,99659.89
2023-04-07T12:50:25.433Z,99663.04
2023-04-07T12:52:54.998Z,99665.80
2023-04-07T12:55:23.420Z,99663.06
2023-04-07T12:57:51.854Z,99663.98
2023-04-07T13:00:21.049Z,99661.21
2023-04-07T13:02:50.946Z,99663.67
2023-04-07T13:05:19.705Z,99662.34
2023-04-07T13:07:50.530Z,99661.95
2023-04-07T13:10:18.983Z,99661.26
2023-04-07T13:12:48.640Z,99661.84
2023-04-07T13:15:17.721Z,99665.39
2023-04-07T13:17:47.416Z,99664.75
2023-04-07T13:20:19.779Z,99665.77
2023-04-07T13:22:59.273Z,99664.58
2023-04-07T13:25:34.525Z,99663.81
2023-04-07T13:28:03.579Z,99658.60
2023-04-07T13:30:32.023Z,99660.27
2023-04-07T13:33:01.149Z,99654.64
2023-04-07T13:35:31.170Z,99654.98
2023-04-07T13:37:59.592Z,99651.75
2023-04-07T13:40:27.784Z,99655.38
2023-04-07T13:42:57.597Z,99655.79
2023-04-07T13:45:25.905Z,99650.38
2023-04-07T13:47:56.823Z,99653.77
2023-04-07T13:50:26.009Z,99654.76
2023-04-07T13:52:54.336Z,99653.02
2023-04-07T13:55:22.555Z,99649.64
2023-04-07T13:57:50.973Z,99659.04
2023-04-07T14:00:19.610Z,99657.73
2023-04-07T14:03:08.517Z,99662.59
2023-04-07T14:05:37.178Z,99656.00
2023-04-07T14:08:06.581Z,99653.41
2023-04-07T14:10:36.423Z,99655.23
2023-04-07T14:13:04.687Z,99656.23
2023-04-07T14:15:34.209Z,99657.79
2023-04-07T14:18:02.855Z,99654.70
2023-04-07T14:20:31.165Z,99654.14
2023-04-07T14:23:00.567Z,99655.00
2023-04-07T14:25:29.047Z,99659.15
2023-04-07T14:27:58.763Z,99658.81
2023-04-07T14:30:27.516Z,99660.66
2023-04-07T14:32:56.638Z,99661.41
2023-04-07T14:35:26.095Z,99661.60
2023-04-07T14:37:55.594Z,99666.09
2023-04-07T14:40:24.733Z,99658.73
2023-04-07T14:43:06.829Z,99664.53
2023-04-07T14:45:35.901Z,99662.59
2023-04-07T14:48:05.921Z,99660.42
2023-04-07T14:50:34.744Z,99657.80
2023-04-07T14:53:03.688Z,99659.91
2023-04-07T14:55:32.226Z,99660.55
2023-04-07T14:58:00.525Z,99659.11
2023-04-07T15:00:29.385Z,99663.98
2023-04-07T15:03:16.677Z,99664.77
2023-04-07T15:05:45.174Z,99663.71
2023-04-07T15:08:14.434Z,99663.45
2023-04-07T15:10:42.914Z,99664.59
2023-04-07T15:13:11.377Z,99661.40
2023-04-07T15:15:39.631Z,99664.20
2023-04-07T15:18:08.036Z,99668.13
2023-04-07T15:20:36.544Z,99667.60
2023-04-07T15:23:05.020Z,99670.05
2023-04-07T15:25:33.397Z,99672.77
2023-04-07T15:28:01.706Z,99673.81
2023-04-07T15:30:34.180Z,99678.51
2023-04-07T15:33:04.537Z,99675.38
2023-04-07T15:35:33.429Z,99679.55
2023-04-07T15:38:02.527Z,99676.17
2023-04-07T15:40:31.157Z,99675.91
2023-04-07T15:43:00.988Z,99679.09
2023-04-07T15:45:30.494Z,99675.08
2023-04-07T15:47:58.913Z,99677.40
2023-04-07T15:50:30.125Z,99677.96
2023-04-07T15:52:59.294Z,99676.58
2023-04-07T15:55:27.749Z,99674.13
2023-04-07T15:57:56.326Z,99672.42
2023-04-07T16:00:24.676Z,99668.02
2023-04-07T16:02:56.020Z,99670.88
2023-04-07T16:05:24.532Z,99667.24
2023-04-07T16:07:52.770Z,99667.84
2023-04-07T16:10:23.112Z,99669.77
2023-04-07T16:12:52.560Z,99669.58
2023-04-07T16:15:36.452Z,99668.08
2023-04-07T16:18:10.831Z,99664.70
2023-04-07T16:20:41.035Z,99660.30
2023-04-07T16:23:10.846Z,99663.20
2023-04-07T16:25:39.641Z,99662.20
2023-04-07T16:28:07.994Z,99669.45
2023-04-07T16:30:37.583Z,99671.66
2023-04-07T16:33:17.250Z,99673.13
2023-04-07T16:35:45.558Z,99676.53
2023-04-07T16:38:14.952Z,99671.80
2023-04-07T16:41:00.712Z,99676.53
2023-04-07T16:43:36.794Z,99676.73
2023-04-07T16:46:06.466Z,99676.15
2023-04-07T16:48:35.250Z,99680.72
2023-04-07T16:51:03.518Z,99684.41
2023-04-07T16:53:32.515Z,99687.69
2023-04-07T16:56:04.491Z,99691.95
2023-04-07T16:58:33.675Z,99696.11
2023-04-07T17:01:02.219Z,99703.38
2023-04-07T17:03:32.554Z,99705.43
2023-04-07T17:06:05.706Z,99713.38
2023-04-07T17:08:38.668Z,99718.96
2023-04-07T17:11:09.878Z,99721.57
2023-04-07T17:13:40.240Z,99718.43
2023-04-07T17:16:14.980Z,99721.79
2023-04-07T17:18:45.178Z,99732.86
2023-04-07T17:21:15.554Z,99736.86
2023-04-07T17:23:48.382Z,99738.73
2023-04-07T17:26:16.964Z,99739.80
2023-04-07T17:28:46.395Z,99745.27
2023-04-07T17:31:14.796Z,99748.05
2023-04-07T17:33:43.775Z,99745.90
2023-04-07T17:36:12.035Z,99748.95
2023-04-07T17:38:40.689Z,99750.46
2023-04-07T17:41:09.116Z,99755.58
2023-04-07T17:43:37.806Z,99763.61
2023-04-07T17:46:06.284Z,99769.39
2023-04-07T17:48:34.681Z,99776.73
2023-04-07T17:51:03.511Z,99776.63
2023-04-07T17:53:32.464Z,99778.73
2023-04-07T17:56:01.216Z,99779.17
2023-04-07T17:58:30.108Z,99779.93
2023-04-07T18:00:58.383Z,99790.27
2023-04-07T18:03:27.766Z,99796.79
2023-04-07T18:05:56.650Z,99797.94
2023-04-07T18:08:26.350Z,99802.77
2023-04-07T18:11:07.563Z,99801.12
2023-04-07T18:13:36.154Z,99801.10
2023-04-07T18:16:09.504Z,99805.80
2023-04-07T18:18:43.581Z,99807.93
2023-04-07T18:21:11.990Z,99804.97
2023-04-07T18:23:40.292Z,99805.25
2023-04-07T18:26:09.597Z,99801.96
2023-04-07T18:28:38.367Z,99803.77
2023-04-07T18:31:08.332Z,99800.73
2023-04-07T18:33:38.243Z,99802.46
2023-04-07T18:36:08.198Z,99798.33
2023-04-07T18:38:39.379Z,99796.21
2023-04-07T18:41:08.262Z,99801.87
2023-04-07T18:43:36.522Z,99800.73
2023-04-07T18:46:04.907Z,99804.78
2023-04-07T18:48:34.164Z,99799.21
2023-04-07T18:51:03.160Z,99796.55
2023-04-07T18:53:31.402Z,99794.23
2023-04-07T18:56:00.429Z,99794.73
2023-04-07T18:58:29.248Z,99792.58
2023-04-07T19:00:58.650Z,99790.96
2023-04-07T19:03:27.775Z,99792.76
2023-04-07T19:05:56.762Z,99793.66
2023-04-07T19:08:25.879Z,99795.98
2023-04-07T19:10:54.094Z,99795.26
2023-04-07T19:13:22.339Z,99791.58
2023-04-07T19:15:51.775Z,99791.61
2023-04-07T19:18:22.140Z,99787.98
2023-04-07T19:20:50.467Z,99786.91
2023-04-07T19:23:19.224Z,99786.87
2023-04-07T19:25:48.072Z,99789.41
2023-04-07T19:28:21.348Z,99793.11
2023-04-07T19:30:49.760Z,99786.77
2023-04-07T19:33:18.479Z,99786.44
2023-04-07T19:35:50.565Z,99784.80
2023-04-07T19:38:19.370Z,99786.80
2023-04-07T19:40:47.561Z,99791.90
2023-04-07T19:43:17.690Z,99792.27
2023-04-07T19:45:51.924Z,99791.48
2023-04-07T19:48:20.546Z,99791.77
2023-04-07T19:50:51.470Z,99797.20
2023-04-07T19:53:26.254Z,99791.88
2023-04-07T19:55:56.259Z,99796.73
2023-04-07T19:58:25.038Z,99795.83
2023-04-07T20:00:55.285Z,99793.90
2023-04-07T20:03:24.581Z,99795.20
2023-04-07T20:05:53.278Z,99799.46
2023-04-07T20:08:21.996Z,99797.86
2023-04-07T20:10:52.684Z,99798.09
2023-04-07T20:13:24.118Z,99796.05
2023-04-07T20:15:53.552Z,99796.23
2023-04-07T20:18:21.982Z,99800.79
2023-04-07T20:20:58.929Z,99798.42
2023-04-07T20:23:27.393Z,99803.31
2023-04-07T20:25:55.531Z,99805.99
2023-04-07T20:28:24.618Z,99803.91
2023-04-07T20:30:53.399Z,99801.40
2023-04-07T20:33:21.924Z,99798.90
2023-04-07T20:35:50.756Z,99801.11
2023-04-07T20:38:19.396Z,99804.09
2023-04-07T20:40:54.661Z,99802.06
2023-04-07T20:43:24.643Z,99801.77
2023-04-07T20:45:53.471Z,99803.69
2023-04-07T20:48:24.779Z,99804.39
2023-04-07T20:50:53.281Z,99806.60
2023-04-07T20:53:25.659Z,99804.52
2023-04-07T20:55:54.095Z,99799.81
2023-04-07T20:58:23.235Z,99797.11
2023-04-07T21:00:59.721Z,99802.73
2023-04-07T21:03:29.210Z,99802.87
2023-04-07T21:05:57.993Z,99796.49
2023-04-07T21:08:30.756Z,99800.52
2023-04-07T21:10:59.645Z,99798.92
2023-04-07T21:13:29.382Z,99800.58
2023-04-07T21:15:59.431Z,99793.74
2023-04-07T21:18:28.427Z,99796.65
2023-04-07T21:20:57.778Z,99793.95
2023-04-07T21:23:31.452Z,99794.52
2023-04-07T21:26:01.827Z,99792.02
2023-04-07T21:28:34.683Z,99790.55
2023-04-07T21:31:04.602Z,99793.73
2023-04-07T21:33:34.764Z,99793.20
2023-04-07T21:36:06.627Z,99792.33
2023-04-07T21:38:35.259Z,99788.94
2023-04-07T21:41:04.072Z,99788.02
2023-04-07T21:43:34.680Z,99786.54
2023-04-07T21:46:04.662Z,99783.99
2023-04-07T21:48:34.904Z,99786.27
2023-04-07T21:51:03.610Z,99785.45
2023-04-07T21:53:33.187Z,99784.54
2023-04-07T21:56:01.865Z,99783.27
2023-04-07T21:58:31.749Z,99784.27
2023-04-07T22:01:00.485Z,99781.83
2023-04-07T22:03:29.739Z,99783.88
2023-04-07T22:06:02.023Z,99783.34
2023-04-07T22:08:30.910Z,99789.29
2023-04-07T22:10:59.348Z,99790.48
2023-04-07T22:13:27.682Z,99786.59
2023-04-07T22:15:56.487Z,99786.86
2023-04-07T22:18:24.847Z,99783.92
2023-04-07T22:20:53.437Z,99783.78
2023-04-07T22:23:21.755Z,99785.86
2023-04-07T22:25:52.817Z,99783.73
2023-04-07T22:28:22.358Z,99783.45
2023-04-07T22:30:50.695Z,99780.35
2023-04-07T22:35:24.602Z,99782.85
2023-04-07T22:37:52.815Z,99781.02
2023-04-07T22:40:21.335Z,99776.99
2023-04-07T22:42:49.617Z,99773.73
2023-04-07T22:45:20.748Z,99771.55
2023-04-07T22:47:49.626Z,99769.96
2023-04-07T22:50:18.264Z,99769.52
2023-04-07T22:52:47.306Z,99771.98
2023-04-07T22:55:15.761Z,99773.65
2023-04-07T22:57:45.619Z,99773.17
2023-04-07T23:00:14.602Z,99769.30
2023-04-07T23:02:43.521Z,99768.69
2023-04-07T23:05:12.091Z,99764.51
2023-04-07T23:07:40.453Z,99762.17
2023-04-07T23:10:11.000Z,99759.11
2023-04-07T23:12:41.424Z,99751.71
2023-04-07T23:15:10.046Z,99752.84
2023-04-07T23:17:40.856Z,99749.45
2023-04-07T23:20:10.017Z,99745.11
2023-04-07T23:22:38.451Z,99752.35
2023-04-07T23:25:07.919Z,99750.39
2023-04-07T23:27:36.669Z,99749.80
2023-04-07T23:30:06.063Z,99746.61
2023-04-07T23:32:35.242Z,99743.08
2023-04-07T23:35:03.840Z,99746.14
2023-04-07T23:37:34.970Z,99748.25
2023-04-07T23:40:03.391Z,99745.96
2023-04-07T23:42:32.272Z,99744.98
2023-04-07T23:45:01.260Z,99744.05
2023-04-07T23:47:29.718Z,99746.58
2023-04-07T23:49:58.867Z,99746.48
2023-04-07T23:52:27.387Z,99749.13
2023-04-07T23:54:56.696Z,99749.56
2023-04-07T23:57:25.182Z,99747.30
2023-04-07T23:59:53.656Z,99743.23
